createdAt,value
2023-03-31T00:02:23.167Z,94.83
2023-03-31T00:04:52.780Z,95.33
2023-03-31T00:07:22.315Z,95.02
2023-03-31T00:09:48.797Z,93.78
2023-03-31T00:12:16.640Z,93.85
2023-03-31T00:14:44.095Z,94.16
2023-03-31T00:17:11.522Z,94.22
2023-03-31T00:19:40.081Z,94.20
2023-03-31T00:22:06.599Z,94.37
2023-03-31T00:24:33.387Z,94.44
2023-03-31T00:27:01.190Z,94.74
2023-03-31T00:29:27.926Z,94.04
2023-03-31T00:31:55.433Z,93.96
2023-03-31T00:34:22.938Z,93.81
2023-03-31T00:36:49.366Z,93.39
2023-03-31T00:39:18.742Z,93.75
2023-03-31T00:41:45.695Z,93.28
2023-03-31T00:44:22.692Z,94.04
2023-03-31T00:46:53.884Z,94.23
2023-03-31T00:49:34.169Z,94.81
2023-03-31T00:52:31.165Z,93.92
2023-03-31T00:55:04.970Z,94.34
2023-03-31T00:57:37.093Z,94.02
2023-03-31T01:00:25.520Z,95.63
2023-03-31T01:02:58.787Z,95.84
2023-03-31T01:05:36.597Z,94.56
2023-03-31T01:08:05.733Z,95.04
2023-03-31T01:10:41.458Z,94.77
2023-03-31T01:13:10.724Z,94.76
2023-03-31T01:15:38.325Z,95.30
2023-03-31T01:18:10.802Z,94.75
2023-03-31T01:21:06.600Z,95.43
2023-03-31T01:23:57.900Z,94.97
2023-03-31T01:26:49.739Z,95.61
2023-03-31T01:29:42.663Z,96.88
2023-03-31T01:32:38.258Z,95.79
2023-03-31T01:35:24.032Z,96.54
2023-03-31T01:38:19.488Z,95.58
2023-03-31T01:41:01.851Z,95.49
2023-03-31T01:43:43.715Z,96.19
2023-03-31T01:46:25.238Z,95.35
2023-03-31T01:49:07.730Z,95.51
2023-03-31T01:51:45.586Z,95.64
2023-03-31T01:54:21.084Z,96.32
2023-03-31T01:56:55.038Z,95.97
2023-03-31T01:59:34.282Z,95.38
2023-03-31T02:02:11.314Z,95.98
2023-03-31T02:04:43.613Z,95.61
2023-03-31T02:07:14.637Z,95.01
2023-03-31T02:09:44.115Z,95.45
2023-03-31T02:12:13.402Z,95.85
2023-03-31T02:14:44.550Z,95.95
2023-03-31T02:17:18.265Z,95.67
2023-03-31T02:19:49.102Z,94.72
2023-03-31T02:22:19.584Z,95.04
2023-03-31T02:24:49.037Z,94.87
2023-03-31T02:27:20.988Z,95.51
2023-03-31T02:29:48.580Z,95.58
2023-03-31T02:32:22.861Z,95.11
2023-03-31T02:34:49.504Z,94.56
2023-03-31T02:37:16.309Z,94.41
2023-03-31T02:39:48.012Z,95.10
2023-03-31T02:42:14.508Z,95.47
2023-03-31T02:44:41.097Z,94.99
2023-03-31T02:47:11.273Z,94.34
2023-03-31T02:49:40.338Z,93.88
2023-03-31T02:52:44.920Z,94.26
2023-03-31T02:55:20.049Z,95.31
2023-03-31T02:58:05.453Z,93.84
2023-03-31T03:00:46.012Z,94.13
2023-03-31T03:03:26.885Z,95.19
2023-03-31T03:06:16.806Z,94.42
2023-03-31T03:09:25.236Z,96.31
2023-03-31T03:12:06.756Z,94.87
2023-03-31T03:14:44.854Z,95.46
2023-03-31T03:17:23.606Z,96.68
2023-03-31T03:19:55.786Z,95.93
2023-03-31T03:22:22.949Z,96.85
2023-03-31T03:24:49.347Z,97.34
2023-03-31T03:27:15.964Z,96.04
2023-03-31T03:29:42.801Z,96.66
2023-03-31T03:32:10.711Z,97.16
2023-03-31T03:34:37.464Z,97.54
2023-03-31T03:37:03.860Z,97.94
2023-03-31T03:39:30.238Z,97.36
2023-03-31T03:41:56.621Z,96.57
2023-03-31T03:44:23.079Z,97.31
2023-03-31T03:46:49.597Z,97.89
2023-03-31T03:49:16.281Z,97.38
2023-03-31T03:51:42.686Z,97.72
2023-03-31T03:54:09.089Z,96.86
2023-03-31T03:56:35.531Z,97.73
2023-03-31T03:59:01.940Z,97.90
2023-03-31T04:01:28.336Z,96.78
2023-03-31T04:03:54.733Z,97.55
2023-03-31T04:06:21.194Z,97.54
2023-03-31T04:08:47.593Z,97.76
2023-03-31T04:11:18.991Z,97.53
2023-03-31T04:13:46.729Z,97.70
2023-03-31T04:16:13.442Z,98.36
2023-03-31T04:18:48.681Z,98.22
2023-03-31T04:21:22.697Z,99.38
2023-03-31T04:24:01.646Z,98.36
2023-03-31T04:26:42.639Z,98.26
2023-03-31T04:29:13.741Z,98.20
2023-03-31T04:31:42.934Z,98.85
2023-03-31T04:34:14.097Z,97.99
2023-03-31T04:36:49.075Z,98.63
2023-03-31T04:39:18.035Z,99.34
2023-03-31T04:41:44.830Z,98.92
2023-03-31T04:44:11.258Z,98.37
2023-03-31T04:46:37.662Z,98.02
2023-03-31T04:49:05.621Z,98.23
2023-03-31T04:51:32.023Z,99.08
2023-03-31T04:53:58.429Z,99.59
2023-03-31T04:56:24.821Z,99.05
2023-03-31T04:58:51.223Z,100.00
2023-03-31T05:01:20.432Z,98.97
2023-03-31T05:03:48.002Z,98.98
2023-03-31T05:06:16.029Z,100.00
2023-03-31T05:08:43.467Z,100.00
2023-03-31T05:11:09.860Z,100.00
2023-03-31T05:13:36.243Z,100.00
2023-03-31T05:16:10.894Z,100.00
2023-03-31T05:18:37.780Z,100.00
2023-03-31T05:21:15.628Z,100.00
2023-03-31T05:23:42.953Z,100.00
2023-03-31T05:26:10.107Z,100.00
2023-03-31T05:28:37.081Z,99.93
2023-03-31T05:31:04.649Z,100.00
2023-03-31T05:33:31.708Z,99.97
2023-03-31T05:36:00.122Z,100.00
2023-03-31T05:38:31.774Z,99.96
2023-03-31T05:40:58.381Z,99.31
2023-03-31T05:43:24.889Z,99.50
2023-03-31T05:45:51.338Z,99.38
2023-03-31T05:48:17.781Z,99.76
2023-03-31T05:50:44.173Z,98.33
2023-03-31T05:53:10.725Z,98.24
2023-03-31T05:55:37.673Z,96.71
2023-03-31T05:58:04.585Z,97.32
2023-03-31T06:00:31.643Z,97.16
2023-03-31T06:02:59.272Z,96.55
2023-03-31T06:05:30.959Z,96.38
2023-03-31T06:07:57.460Z,97.37
2023-03-31T06:10:23.859Z,97.44
2023-03-31T06:12:53.086Z,96.37
2023-03-31T06:15:19.491Z,95.81
2023-03-31T06:17:45.979Z,95.78
2023-03-31T06:20:24.458Z,95.20
2023-03-31T06:22:53.317Z,93.70
2023-03-31T06:25:19.743Z,93.33
2023-03-31T06:27:46.188Z,93.78
2023-03-31T06:30:13.144Z,93.69
2023-03-31T06:32:39.603Z,91.63
2023-03-31T06:35:06.561Z,90.18
2023-03-31T06:37:32.998Z,91.34
2023-03-31T06:39:59.383Z,90.11
2023-03-31T06:42:26.111Z,90.09
2023-03-31T06:44:52.522Z,87.78
2023-03-31T06:47:19.013Z,87.68
2023-03-31T06:49:45.484Z,86.98
2023-03-31T06:52:11.871Z,87.99
2023-03-31T06:54:38.375Z,86.44
2023-03-31T06:57:04.992Z,85.29
2023-03-31T06:59:31.400Z,86.01
2023-03-31T07:01:58.040Z,85.24
2023-03-31T07:04:24.508Z,84.58
2023-03-31T07:06:51.556Z,83.22
2023-03-31T07:09:18.773Z,83.21
2023-03-31T07:11:45.270Z,83.34
2023-03-31T07:14:11.882Z,82.09
2023-03-31T07:16:38.462Z,82.54
2023-03-31T07:19:06.613Z,81.91
2023-03-31T07:21:33.051Z,83.06
2023-03-31T07:23:59.503Z,82.33
2023-03-31T07:26:27.054Z,81.50
2023-03-31T07:28:56.548Z,80.46
2023-03-31T07:31:23.330Z,79.80
2023-03-31T07:33:49.762Z,80.43
2023-03-31T07:36:16.998Z,80.33
2023-03-31T07:38:46.735Z,79.12
2023-03-31T07:41:15.595Z,78.39
2023-03-31T07:43:42.109Z,78.95
2023-03-31T07:46:18.755Z,79.33
2023-03-31T07:48:46.665Z,79.67
2023-03-31T07:51:15.301Z,77.99
2023-03-31T07:53:41.796Z,78.32
2023-03-31T07:56:08.654Z,78.55
2023-03-31T07:58:35.803Z,77.63
2023-03-31T08:01:02.646Z,76.91
2023-03-31T08:03:29.184Z,77.69
2023-03-31T08:05:56.233Z,77.26
2023-03-31T08:08:22.665Z,76.87
2023-03-31T08:10:50.711Z,76.83
2023-03-31T08:13:17.150Z,76.64
2023-03-31T08:15:43.655Z,76.26
2023-03-31T08:18:10.222Z,77.05
2023-03-31T08:20:36.698Z,77.12
2023-03-31T08:23:03.701Z,76.22
2023-03-31T08:25:30.237Z,76.58
2023-03-31T08:27:56.892Z,76.37
2023-03-31T08:30:23.496Z,76.28
2023-03-31T08:32:49.924Z,75.87
2023-03-31T08:35:16.552Z,76.55
2023-03-31T08:37:42.961Z,75.92
2023-03-31T08:40:16.768Z,76.49
2023-03-31T08:42:50.435Z,76.03
2023-03-31T08:45:34.183Z,76.08
2023-03-31T08:48:07.450Z,76.10
2023-03-31T08:50:39.833Z,76.60
2023-03-31T08:53:13.786Z,76.01
2023-03-31T08:55:52.194Z,77.07
2023-03-31T08:58:40.408Z,74.94
2023-03-31T09:01:27.191Z,74.55
2023-03-31T09:04:43.515Z,72.86
2023-03-31T09:07:26.261Z,73.20
2023-03-31T09:10:24.537Z,73.43
2023-03-31T09:13:17.048Z,71.09
2023-03-31T09:15:46.877Z,72.07
2023-03-31T09:18:37.463Z,70.40
2023-03-31T09:21:13.953Z,70.92
2023-03-31T09:24:09.512Z,71.57
2023-03-31T09:26:47.675Z,70.11
2023-03-31T09:29:19.195Z,70.15
2023-03-31T09:31:46.944Z,69.69
2023-03-31T09:34:17.536Z,71.67
2023-03-31T09:36:43.999Z,71.51
2023-03-31T09:39:14.154Z,71.00
2023-03-31T09:41:46.205Z,70.59
2023-03-31T09:44:25.913Z,70.92
2023-03-31T09:46:53.700Z,71.60
2023-03-31T09:49:27.403Z,71.64
2023-03-31T09:52:02.408Z,71.52
2023-03-31T09:54:36.371Z,71.88
2023-03-31T09:57:03.677Z,71.57
2023-03-31T09:59:33.935Z,71.70
2023-03-31T10:02:03.870Z,72.18
2023-03-31T10:04:34.386Z,77.28
2023-03-31T10:07:03.874Z,77.83
2023-03-31T10:09:33.486Z,78.53
2023-03-31T10:12:05.720Z,78.20
2023-03-31T10:14:48.040Z,78.46
2023-03-31T10:17:20.659Z,79.30
2023-03-31T10:19:49.528Z,79.44
2023-03-31T10:22:27.894Z,78.76
2023-03-31T10:24:54.389Z,79.34
2023-03-31T10:27:29.856Z,79.00
2023-03-31T10:29:58.673Z,78.75
2023-03-31T10:32:29.315Z,79.18
2023-03-31T10:34:57.844Z,81.52
2023-03-31T10:37:28.051Z,83.00
2023-03-31T10:40:06.023Z,84.91
2023-03-31T10:42:32.998Z,84.59
2023-03-31T10:45:36.541Z,85.56
2023-03-31T10:48:04.476Z,87.67
2023-03-31T10:50:34.289Z,89.12
2023-03-31T10:53:03.153Z,90.40
2023-03-31T10:55:36.111Z,89.62
2023-03-31T10:58:32.750Z,89.58
2023-03-31T11:01:14.252Z,91.72
2023-03-31T11:03:45.398Z,89.60
2023-03-31T11:06:48.028Z,88.66
2023-03-31T11:09:26.234Z,86.17
2023-03-31T11:12:19.019Z,84.83
2023-03-31T11:15:00.228Z,83.04
2023-03-31T11:26:25.964Z,83.25
2023-03-31T11:28:58.991Z,82.60
2023-03-31T11:31:36.754Z,83.16
2023-03-31T11:34:33.415Z,83.52
2023-03-31T11:37:19.500Z,84.85
2023-03-31T11:40:13.410Z,88.60
2023-03-31T11:42:49.473Z,92.58
2023-03-31T11:45:19.786Z,94.14
2023-03-31T11:47:50.875Z,96.77
2023-03-31T11:50:22.165Z,95.66
2023-03-31T11:52:58.385Z,96.16
2023-03-31T11:55:28.550Z,94.74
2023-03-31T11:58:08.364Z,96.96
2023-03-31T12:00:46.435Z,97.46
2023-03-31T12:03:20.006Z,99.54
2023-03-31T12:05:51.693Z,100.00
2023-03-31T12:08:28.897Z,100.00
2023-03-31T12:11:02.520Z,99.77
2023-03-31T12:13:46.541Z,97.22
2023-03-31T12:16:12.986Z,97.33
2023-03-31T12:18:56.996Z,93.72
2023-03-31T12:21:26.902Z,93.88
2023-03-31T12:23:53.293Z,91.07
2023-03-31T12:26:40.022Z,90.71
2023-03-31T12:29:28.046Z,90.48
2023-03-31T12:31:58.700Z,88.67
2023-03-31T12:34:27.904Z,88.40
2023-03-31T12:37:22.710Z,87.98
2023-03-31T12:40:21.985Z,86.70
2023-03-31T12:43:06.540Z,87.29
2023-03-31T12:45:59.880Z,89.64
2023-03-31T12:48:44.146Z,91.32
2023-03-31T12:51:30.453Z,93.14
2023-03-31T12:54:07.864Z,95.79
2023-03-31T12:57:02.816Z,96.58
2023-03-31T12:59:41.675Z,99.55
2023-03-31T13:02:08.053Z,100.00
2023-03-31T13:04:34.559Z,100.00
2023-03-31T13:07:00.979Z,100.00
2023-03-31T13:09:33.584Z,100.00
2023-03-31T13:12:07.845Z,100.00
2023-03-31T13:14:40.240Z,100.00
2023-03-31T13:17:32.581Z,100.00
2023-03-31T13:20:27.635Z,100.00
2023-03-31T13:23:06.364Z,100.00
2023-03-31T13:25:39.652Z,100.00
2023-03-31T13:28:22.876Z,100.00
2023-03-31T13:31:44.770Z,100.00
2023-03-31T13:34:11.270Z,100.00
2023-03-31T13:36:56.712Z,100.00
2023-03-31T13:40:12.267Z,100.00
2023-03-31T13:42:57.106Z,100.00
2023-03-31T13:45:47.636Z,100.00
2023-03-31T13:48:33.571Z,100.00
2023-03-31T13:51:19.791Z,100.00
2023-03-31T13:54:04.669Z,100.00
2023-03-31T13:57:00.342Z,100.00
2023-03-31T14:00:12.277Z,100.00
2023-03-31T14:03:04.159Z,100.00
2023-03-31T14:05:43.377Z,100.00
2023-03-31T14:08:18.839Z,100.00
2023-03-31T14:10:45.457Z,100.00
2023-03-31T14:13:19.832Z,100.00
2023-03-31T14:15:50.965Z,100.00
2023-03-31T14:18:27.500Z,100.00
2023-03-31T14:21:21.385Z,100.00
2023-03-31T14:24:05.391Z,100.00
2023-03-31T14:26:47.910Z,100.00
2023-03-31T14:29:37.069Z,100.00
2023-03-31T14:32:25.546Z,100.00
2023-03-31T14:35:04.710Z,100.00
2023-03-31T14:37:31.409Z,100.00
2023-03-31T14:39:58.979Z,100.00
2023-03-31T14:42:39.923Z,100.00
2023-03-31T14:45:17.547Z,100.00
2023-03-31T14:47:54.252Z,100.00
2023-03-31T14:50:21.041Z,100.00
2023-03-31T14:52:49.361Z,100.00
2023-03-31T14:55:17.364Z,100.00
2023-03-31T14:57:47.106Z,100.00
2023-03-31T15:00:24.625Z,100.00
2023-03-31T15:02:51.671Z,100.00
2023-03-31T15:05:32.999Z,100.00
2023-03-31T15:08:03.725Z,100.00
2023-03-31T15:10:35.848Z,100.00
2023-03-31T15:13:08.912Z,100.00
2023-03-31T15:15:35.533Z,100.00
2023-03-31T15:18:03.128Z,100.00
2023-03-31T15:20:38.296Z,100.00
2023-03-31T15:23:24.810Z,100.00
2023-03-31T15:26:02.014Z,100.00
2023-03-31T15:28:37.052Z,100.00
2023-03-31T15:31:10.078Z,100.00
2023-03-31T15:33:44.281Z,100.00
2023-03-31T15:36:12.296Z,100.00
2023-03-31T15:38:39.282Z,100.00
2023-03-31T15:41:13.611Z,100.00
2023-03-31T15:43:50.862Z,100.00
2023-03-31T15:46:45.514Z,100.00
2023-03-31T15:49:21.236Z,100.00
2023-03-31T15:51:48.375Z,100.00
2023-03-31T15:54:34.532Z,100.00
2023-03-31T15:57:02.733Z,100.00
2023-03-31T15:59:41.544Z,100.00
2023-03-31T16:02:21.328Z,100.00
2023-03-31T16:04:50.969Z,100.00
2023-03-31T16:07:32.789Z,100.00
2023-03-31T16:10:01.747Z,100.00
2023-03-31T16:12:35.629Z,100.00
2023-03-31T16:15:15.715Z,100.00
2023-03-31T16:17:50.407Z,100.00
2023-03-31T16:20:31.621Z,100.00
2023-03-31T16:22:59.537Z,100.00
2023-03-31T16:25:29.168Z,100.00
2023-03-31T16:28:00.036Z,100.00
2023-03-31T16:30:41.186Z,100.00
2023-03-31T16:33:09.173Z,100.00
2023-03-31T16:35:38.362Z,100.00
2023-03-31T16:38:06.771Z,100.00
2023-03-31T16:40:41.479Z,100.00
2023-03-31T16:43:14.839Z,100.00
2023-03-31T16:45:44.864Z,100.00
2023-03-31T16:48:16.160Z,100.00
2023-03-31T16:50:45.409Z,100.00
2023-03-31T16:53:13.914Z,100.00
2023-03-31T16:55:40.884Z,100.00
2023-03-31T16:58:07.656Z,100.00
2023-03-31T17:00:36.188Z,100.00
2023-03-31T17:03:06.663Z,100.00
2023-03-31T17:05:38.757Z,100.00
2023-03-31T17:08:05.349Z,100.00
2023-03-31T17:10:31.878Z,100.00
2023-03-31T17:12:58.279Z,100.00
2023-03-31T17:15:24.803Z,100.00
2023-03-31T17:17:51.429Z,100.00
2023-03-31T17:20:18.280Z,100.00
2023-03-31T17:22:45.000Z,100.00
2023-03-31T17:25:11.649Z,100.00
2023-03-31T17:27:38.693Z,100.00
2023-03-31T17:30:06.819Z,100.00
2023-03-31T17:32:33.299Z,100.00
2023-03-31T17:34:59.746Z,100.00
2023-03-31T17:37:27.142Z,100.00
2023-03-31T17:39:53.550Z,100.00
2023-03-31T17:42:20.244Z,100.00
2023-03-31T17:44:49.926Z,100.00
2023-03-31T17:47:16.534Z,100.00
2023-03-31T17:49:42.985Z,100.00
2023-03-31T17:52:09.544Z,100.00
2023-03-31T17:54:36.244Z,100.00
2023-03-31T17:57:03.417Z,100.00
2023-03-31T17:59:30.011Z,100.00
2023-03-31T18:01:56.537Z,100.00
2023-03-31T18:04:24.132Z,100.00
2023-03-31T18:06:50.581Z,100.00
2023-03-31T18:09:17.858Z,100.00
2023-03-31T18:11:44.287Z,100.00
2023-03-31T18:14:10.681Z,100.00
2023-03-31T18:16:37.232Z,100.00
2023-03-31T18:19:03.717Z,100.00
2023-03-31T18:21:30.521Z,100.00
2023-03-31T18:23:56.926Z,100.00
2023-03-31T18:26:25.160Z,100.00
2023-03-31T18:28:51.622Z,100.00
2023-03-31T18:31:18.591Z,100.00
2023-03-31T18:33:45.045Z,100.00
2023-03-31T18:36:17.936Z,100.00
2023-03-31T18:38:45.773Z,100.00
2023-03-31T18:41:12.745Z,100.00
2023-03-31T18:43:39.162Z,100.00
2023-03-31T18:46:05.875Z,100.00
2023-03-31T18:48:32.869Z,100.00
2023-03-31T18:50:59.261Z,100.00
2023-03-31T18:53:25.668Z,100.00
2023-03-31T18:55:54.363Z,100.00
2023-03-31T18:58:20.832Z,100.00
2023-03-31T19:00:47.543Z,100.00
2023-03-31T19:03:14.311Z,100.00
2023-03-31T19:05:40.923Z,100.00
2023-03-31T19:08:07.340Z,100.00
2023-03-31T19:10:33.752Z,100.00
2023-03-31T19:13:00.153Z,100.00
2023-03-31T19:15:27.874Z,100.00
2023-03-31T19:17:54.882Z,100.00
2023-03-31T19:20:21.374Z,100.00
2023-03-31T19:22:50.580Z,100.00
2023-03-31T19:25:19.107Z,100.00
2023-03-31T19:27:46.159Z,100.00
2023-03-31T19:30:22.607Z,100.00
2023-03-31T19:32:50.023Z,100.00
2023-03-31T19:35:18.165Z,100.00
2023-03-31T19:37:45.538Z,100.00
2023-03-31T19:40:12.402Z,100.00
2023-03-31T19:42:39.041Z,100.00
2023-03-31T19:45:06.163Z,100.00
2023-03-31T19:47:32.575Z,100.00
2023-03-31T19:49:59.012Z,100.00
2023-03-31T19:52:25.435Z,100.00
2023-03-31T19:54:51.827Z,100.00
2023-03-31T19:57:18.301Z,100.00
2023-03-31T19:59:44.752Z,100.00
2023-03-31T20:02:14.198Z,100.00
2023-03-31T20:04:41.619Z,100.00
2023-03-31T20:07:08.518Z,100.00
2023-03-31T20:09:34.974Z,100.00
2023-03-31T20:12:01.445Z,100.00
2023-03-31T20:14:29.239Z,100.00
2023-03-31T20:16:56.044Z,100.00
2023-03-31T20:19:23.294Z,100.00
2023-03-31T20:21:56.096Z,100.00
2023-03-31T20:24:23.350Z,100.00
2023-03-31T20:26:50.329Z,100.00
2023-03-31T20:29:16.959Z,100.00
2023-03-31T20:31:43.526Z,100.00
2023-03-31T20:34:15.275Z,100.00
2023-03-31T20:36:43.832Z,100.00
2023-03-31T20:39:12.822Z,100.00
2023-03-31T20:41:39.661Z,100.00
2023-03-31T20:44:12.035Z,100.00
2023-03-31T20:46:41.669Z,100.00
2023-03-31T20:49:08.104Z,100.00
2023-03-31T20:51:40.025Z,100.00
2023-03-31T20:54:07.884Z,100.00
2023-03-31T20:56:39.572Z,100.00
2023-03-31T20:59:08.652Z,100.00
2023-03-31T21:01:35.969Z,100.00
2023-03-31T21:04:04.956Z,100.00
2023-03-31T21:06:37.610Z,100.00
2023-03-31T21:09:04.338Z,100.00
2023-03-31T21:11:31.019Z,100.00
2023-03-31T21:13:57.437Z,100.00
2023-03-31T21:16:23.946Z,100.00
2023-03-31T21:18:55.043Z,100.00
2023-03-31T21:21:24.278Z,100.00
2023-03-31T21:23:51.503Z,100.00
2023-03-31T21:26:18.210Z,100.00
2023-03-31T21:28:44.984Z,100.00
2023-03-31T21:31:14.430Z,100.00
2023-03-31T21:33:43.095Z,100.00
2023-03-31T21:36:12.638Z,100.00
2023-03-31T21:38:39.393Z,100.00
2023-03-31T21:41:18.375Z,100.00
2023-03-31T21:43:45.224Z,100.00
2023-03-31T21:46:28.785Z,100.00
2023-03-31T21:48:57.286Z,100.00
2023-03-31T21:51:24.955Z,100.00
2023-03-31T21:53:55.829Z,100.00
2023-03-31T21:56:28.138Z,100.00
2023-03-31T21:58:54.920Z,100.00
2023-03-31T22:01:22.457Z,100.00
2023-03-31T22:03:50.281Z,100.00
2023-03-31T22:06:16.757Z,100.00
2023-03-31T22:08:43.785Z,100.00
2023-03-31T22:11:11.371Z,100.00
2023-03-31T22:13:38.574Z,100.00
2023-03-31T22:16:13.263Z,100.00
2023-03-31T22:18:39.701Z,100.00
2023-03-31T22:21:23.785Z,100.00
2023-03-31T22:23:55.454Z,100.00
2023-03-31T22:26:22.626Z,100.00
2023-03-31T22:28:49.946Z,100.00
2023-03-31T22:31:16.452Z,100.00
2023-03-31T22:33:43.020Z,100.00
2023-03-31T22:36:09.745Z,100.00
2023-03-31T22:38:36.240Z,100.00
2023-03-31T22:41:02.821Z,100.00
2023-03-31T22:43:29.290Z,100.00
2023-03-31T22:45:55.689Z,100.00
2023-03-31T22:48:22.700Z,100.00
2023-03-31T22:50:49.152Z,100.00
2023-03-31T22:53:16.731Z,100.00
2023-03-31T22:55:53.857Z,100.00
2023-03-31T22:58:21.496Z,100.00
2023-03-31T23:00:55.668Z,100.00
2023-03-31T23:03:22.131Z,100.00
2023-03-31T23:05:48.522Z,100.00
2023-03-31T23:08:14.927Z,100.00
2023-03-31T23:10:41.320Z,100.00
2023-03-31T23:13:07.727Z,100.00
2023-03-31T23:15:37.140Z,100.00
2023-03-31T23:18:03.671Z,100.00
2023-03-31T23:20:30.320Z,100.00
2023-03-31T23:22:56.775Z,100.00
2023-03-31T23:25:23.190Z,100.00
2023-03-31T23:27:49.591Z,100.00
2023-03-31T23:30:16.548Z,100.00
2023-03-31T23:32:42.952Z,100.00
2023-03-31T23:35:11.114Z,100.00
2023-03-31T23:37:37.551Z,100.00
2023-03-31T23:40:04.686Z,100.00
2023-03-31T23:42:31.290Z,100.00
2023-03-31T23:44:57.718Z,100.00
2023-03-31T23:47:24.655Z,100.00
2023-03-31T23:49:51.132Z,100.00
2023-03-31T23:52:17.879Z,100.00
2023-03-31T23:54:44.272Z,100.00
2023-03-31T23:57:11.042Z,100.00
2023-03-31T23:59:37.562Z,100.00
